Time;durP1;ratioP1;P1;durP2;ratioP2;P2;SDS_P1;SDS_P2;PMS_P1;PMS_P2;Temp;Humidity;BMP_temperature;BMP_pressure;BME280_temperature;BME280_humidity;BME280_pressure;Samples;Min_cycle;Max_cycle;Signal;HPM_P1;HPM_P2
2023/03/20 00:02:04;;;;;;;22.67;15.23;;;;;;;10.05;100.00;100998.50;5008336;28;20049;-75
2023/03/20 00:04:31;;;;;;;19.65;13.88;;;;;;;10.03;100.00;100992.41;5022006;28;20097;-78
2023/03/20 00:06:57;;;;;;;20.60;14.05;;;;;;;10.00;100.00;100991.53;4995458;28;20478;-78
2023/03/20 00:09:24;;;;;;;22.58;14.93;;;;;;;9.99;100.00;100997.66;5008990;28;20045;-75
2023/03/20 00:11:54;;;;;;;22.48;14.20;;;;;;;9.98;100.00;100999.38;5008645;28;20104;-75
2023/03/20 00:14:23;;;;;;;19.98;14.27;;;;;;;10.00;100.00;100996.75;5009245;28;20741;-77
2023/03/20 00:16:51;;;;;;;22.13;14.75;;;;;;;10.01;100.00;101003.72;5007978;28;20069;-74
2023/03/20 00:19:22;;;;;;;22.77;15.98;;;;;;;9.96;100.00;101002.88;5007403;28;20061;-77
2023/03/20 00:21:50;;;;;;;24.60;16.70;;;;;;;9.91;100.00;101000.28;5008959;28;20057;-77
2023/03/20 00:24:17;;;;;;;24.90;17.90;;;;;;;9.84;100.00;100999.41;5005826;28;20046;-77
2023/03/20 00:26:46;;;;;;;28.75;19.52;;;;;;;9.73;100.00;101009.00;5009662;28;20500;-76
2023/03/20 00:29:29;;;;;;;28.65;18.90;;;;;;;9.63;100.00;101007.25;4991709;28;20164;-83
2023/03/20 00:31:57;;;;;;;31.48;18.63;;;;;;;9.60;100.00;101014.19;5006995;28;20097;-75
2023/03/20 00:34:27;;;;;;;35.00;21.13;;;;;;;9.57;100.00;101019.44;5010785;28;20046;-75
2023/03/20 00:36:55;;;;;;;34.08;20.35;;;;;;;9.54;100.00;101013.31;5006995;28;20046;-76
2023/03/20 00:39:22;;;;;;;34.40;19.80;;;;;;;9.51;100.00;101018.56;5004199;28;20058;-75
2023/03/20 00:41:53;;;;;;;32.75;19.15;;;;;;;9.46;100.00;101013.31;5008133;28;20038;-76
2023/03/20 00:44:30;;;;;;;33.13;20.45;;;;;;;9.48;100.00;101016.81;5010008;28;20038;-75
2023/03/20 00:47:00;;;;;;;32.20;20.05;;;;;;;9.46;100.00;101012.44;5012653;28;20050;-76
2023/03/20 00:49:33;;;;;;;33.72;19.25;;;;;;;9.49;100.00;101007.22;5024266;28;20042;-77
2023/03/20 00:52:02;;;;;;;33.90;20.40;;;;;;;9.50;100.00;101008.97;5000911;28;20045;-78
2023/03/20 00:54:29;;;;;;;33.80;19.25;;;;;;;9.49;100.00;101001.97;5001992;28;20041;-76
2023/03/20 00:57:03;;;;;;;36.72;20.52;;;;;;;9.47;100.00;101001.13;5011406;28;20049;-83
2023/03/20 00:59:34;;;;;;;32.40;19.25;;;;;;;9.46;100.00;101005.47;5012959;28;20046;-80
2023/03/20 01:02:02;;;;;;;40.25;19.33;;;;;;;9.47;100.00;101002.00;4987340;28;20050;-76
2023/03/20 01:04:36;;;;;;;32.25;18.30;;;;;;;9.47;100.00;101003.75;5010548;28;20041;-75
2023/03/20 01:07:04;;;;;;;37.30;20.40;;;;;;;9.46;100.00;101007.22;5012808;28;20046;-76
2023/03/20 01:09:30;;;;;;;34.72;19.85;;;;;;;9.43;100.00;101002.84;5011560;28;20038;-76
2023/03/20 01:12:02;;;;;;;37.00;19.40;;;;;;;9.46;100.00;101004.59;5007172;28;20045;-77
2023/03/20 01:14:29;;;;;;;39.10;21.60;;;;;;;9.43;100.00;100995.03;5007650;28;20076;-75
2023/03/20 01:16:55;;;;;;;32.55;19.15;;;;;;;9.43;100.00;101000.25;5009275;28;20045;-75
2023/03/20 01:19:22;;;;;;;35.58;20.33;;;;;;;9.36;100.00;101001.97;4993022;28;20052;-77
2023/03/20 01:21:49;;;;;;;37.35;19.00;;;;;;;9.36;100.00;101007.22;5006559;28;20038;-80
2023/03/20 01:24:15;;;;;;;33.42;19.45;;;;;;;9.38;100.00;100994.16;5003104;28;20053;-80
2023/03/20 01:26:44;;;;;;;39.35;20.83;;;;;;;9.40;100.00;101006.34;4993615;28;20653;-79
2023/03/20 01:29:26;;;;;;;41.00;21.08;;;;;;;9.39;100.00;101001.13;5004095;28;20043;-77
2023/03/20 01:31:53;;;;;;;42.50;21.38;;;;;;;9.40;100.00;101003.72;5004463;28;20052;-76
2023/03/20 01:34:20;;;;;;;37.88;20.77;;;;;;;9.39;100.00;101004.59;5004127;28;20066;-77
2023/03/20 01:36:52;;;;;;;49.08;22.83;;;;;;;9.41;100.00;101010.72;5002953;28;20056;-77
2023/03/20 01:39:23;;;;;;;48.53;23.13;;;;;;;9.39;100.00;101008.97;4999231;28;20100;-78
2023/03/20 01:41:50;;;;;;;42.28;21.48;;;;;;;9.37;100.00;101024.63;5000974;28;20500;-77
2023/03/20 01:44:29;;;;;;;41.90;22.85;;;;;;;9.36;100.00;101028.13;5015975;28;20033;-79
2023/03/20 01:46:57;;;;;;;41.28;22.35;;;;;;;9.32;100.00;101026.38;4981906;28;20046;-79
2023/03/20 01:49:23;;;;;;;47.15;24.23;;;;;;;9.33;100.00;101022.00;4984919;28;20535;-79
2023/03/20 01:51:52;;;;;;;45.55;23.75;;;;;;;9.34;100.00;101023.75;4999634;28;20048;-80
2023/03/20 01:54:25;;;;;;;46.15;24.33;;;;;;;9.32;100.00;101025.47;5006151;28;20045;-76
2023/03/20 01:56:59;;;;;;;;;;;;;;;9.28;100.00;101027.19;5009334;28;20042;-79
2023/03/20 01:59:50;;;;;;;45.03;21.50;;;;;;;9.22;100.00;101033.28;5010387;28;20144;-81
2023/03/20 02:02:22;;;;;;;37.88;18.35;;;;;;;9.22;100.00;101038.53;5004398;28;20480;-76
2023/03/20 02:04:56;;;;;;;37.47;19.85;;;;;;;9.19;100.00;101037.63;5003573;28;20046;-76
2023/03/20 02:07:24;;;;;;;34.05;19.17;;;;;;;9.19;100.00;101041.13;5009825;28;20042;-78
2023/03/20 02:09:51;;;;;;;34.58;17.60;;;;;;;9.19;100.00;101038.53;5010671;28;20045;-82
2023/03/20 02:12:19;;;;;;;35.03;17.55;;;;;;;9.17;100.00;101042.84;5009785;28;20050;-77
2023/03/20 02:14:47;;;;;;;34.85;18.15;;;;;;;9.16;100.00;101045.47;5008964;28;20119;-75
2023/03/20 02:17:14;;;;;;;36.05;16.63;;;;;;;9.17;100.00;101042.84;5015714;28;20041;-78
2023/03/20 02:20:24;;;;;;;28.35;16.05;;;;;;;9.15;100.00;101051.56;5007884;28;20057;-78
2023/03/20 02:23:02;;;;;;;28.70;16.77;;;;;;;9.14;100.00;101062.88;5011338;28;20038;-75
2023/03/20 02:26:03;;;;;;;27.95;15.98;;;;;;;9.11;100.00;101063.72;5013915;28;20128;-75
2023/03/20 02:28:39;;;;;;;32.50;14.80;;;;;;;9.08;100.00;101061.97;5010391;28;20063;-82
2023/03/20 02:31:55;;;;;;;30.20;15.55;;;;;;;9.07;100.00;101067.19;5031809;28;20115;-76
2023/03/20 02:35:16;;;;;;;29.70;15.20;;;;;;;9.05;100.00;101061.13;4988428;28;20419;-82
2023/03/20 02:38:04;;;;;;;30.35;15.80;;;;;;;9.00;100.00;101050.63;5003140;28;20046;-75
2023/03/20 02:40:42;;;;;;;29.52;15.93;;;;;;;8.97;100.00;101047.13;5012814;28;20462;-76
2023/03/20 02:43:22;;;;;;;32.33;15.00;;;;;;;8.90;100.00;101044.53;5012423;28;20103;-75
2023/03/20 02:45:59;;;;;;;34.70;15.85;;;;;;;8.84;100.00;101039.25;5016024;28;20048;-74
2023/03/20 02:48:58;;;;;;;28.98;15.68;;;;;;;8.84;100.00;101040.97;5018424;28;20495;-77
2023/03/20 02:51:41;;;;;;;31.30;14.00;;;;;;;8.79;100.00;101040.97;5010505;28;20189;-82
2023/03/20 02:54:34;;;;;;;33.45;15.43;;;;;;;8.65;100.00;101038.28;5012753;28;20038;-76
2023/03/20 02:57:05;;;;;;;24.10;14.40;;;;;;;8.47;100.00;101044.28;5002968;28;20057;-76
2023/03/20 02:59:55;;;;;;;33.92;15.52;;;;;;;8.29;100.00;101039.78;5008174;28;20069;-78
2023/03/20 03:02:55;;;;;;;29.55;15.18;;;;;;;8.20;100.00;101037.09;5013640;28;20079;-77
2023/03/20 03:05:31;;;;;;;33.00;13.70;;;;;;;8.10;100.00;101034.44;5030328;28;20096;-77
2023/03/20 03:08:00;;;;;;;25.52;15.23;;;;;;;8.09;100.00;101040.50;5020828;28;20777;-78
2023/03/20 03:10:44;;;;;;;30.17;15.80;;;;;;;8.12;100.00;101034.44;5012780;28;20091;-77
2023/03/20 03:13:18;;;;;;;28.83;14.75;;;;;;;8.15;100.00;101037.09;5008878;28;20040;-79
2023/03/20 03:15:51;;;;;;;33.63;15.63;;;;;;;8.15;100.00;101036.19;4998461;28;20064;-79
2023/03/20 03:18:25;;;;;;;29.13;14.50;;;;;;;8.16;100.00;101036.25;5006753;28;20057;-80
2023/03/20 03:20:58;;;;;;;31.88;14.13;;;;;;;8.14;100.00;101045.78;4998095;28;20041;-82
2023/03/20 03:23:40;;;;;;;28.05;14.40;;;;;;;8.10;100.00;101033.56;5015762;28;20055;-77
2023/03/20 03:26:07;;;;;;;27.27;13.57;;;;;;;8.04;100.00;101034.38;5003883;28;20058;-77
2023/03/20 03:28:43;;;;;;;31.35;16.00;;;;;;;7.97;100.00;101035.22;5021791;28;20036;-78
2023/03/20 03:31:15;;;;;;;32.92;16.38;;;;;;;7.91;100.00;101036.06;5014495;28;20053;-77
2023/03/20 03:33:46;;;;;;;26.92;14.32;;;;;;;7.89;100.00;101039.50;5009819;28;20686;-76
2023/03/20 03:36:27;;;;;;;27.58;15.77;;;;;;;7.86;100.00;101039.47;5014563;28;20047;-78
2023/03/20 03:39:07;;;;;;;26.83;14.23;;;;;;;7.78;100.00;101035.06;5027916;28;20041;-82
2023/03/20 03:41:54;;;;;;;30.30;15.05;;;;;;;7.66;100.00;101039.28;5016872;28;20041;-78
2023/03/20 03:44:37;;;;;;;35.13;16.73;;;;;;;7.57;100.00;101042.69;5010774;28;20148;-79
2023/03/20 03:47:13;;;;;;;31.52;14.23;;;;;;;7.49;100.00;101034.78;4993945;28;20041;-75
2023/03/20 03:49:45;;;;;;;27.70;14.90;;;;;;;7.39;100.00;101041.66;4997375;28;20041;-79
2023/03/20 03:52:21;;;;;;;28.67;15.23;;;;;;;7.34;100.00;101040.72;5011014;28;20053;-77
2023/03/20 03:55:00;;;;;;;38.03;16.48;;;;;;;7.34;100.00;101040.72;5021145;28;20110;-76
2023/03/20 03:57:41;;;;;;;35.05;14.90;;;;;;;7.44;100.00;101042.56;5019275;28;20072;-76
2023/03/20 04:00:11;;;;;;;36.58;16.20;;;;;;;7.55;100.00;101045.28;5012416;28;20057;-75
2023/03/20 04:02:38;;;;;;;37.95;16.30;;;;;;;7.71;100.00;101038.47;5009662;28;20041;-79
2023/03/20 04:05:06;;;;;;;33.95;16.13;;;;;;;7.82;100.00;101045.50;5001519;28;20041;-76
2023/03/20 04:07:33;;;;;;;35.28;16.98;;;;;;;7.90;100.00;101043.84;5002561;28;20347;-75
2023/03/20 04:09:59;;;;;;;32.92;14.48;;;;;;;7.99;100.00;101048.25;4993678;28;20449;-79
2023/03/20 04:12:35;;;;;;;31.50;14.25;;;;;;;8.08;100.00;101056.16;4998522;28;20045;-79
2023/03/20 04:15:03;;;;;;;35.60;16.75;;;;;;;8.13;100.00;101048.38;4997311;28;20045;-76
2023/03/20 04:17:30;;;;;;;32.70;14.88;;;;;;;8.18;100.00;101047.53;5021095;28;20041;-81
2023/03/20 04:19:58;;;;;;;28.92;14.88;;;;;;;8.22;100.00;101044.09;5016213;28;20052;-79
2023/03/20 04:22:25;;;;;;;35.28;16.23;;;;;;;8.21;100.00;101041.47;4976665;28;20167;-78
2023/03/20 04:24:51;;;;;;;39.22;18.60;;;;;;;8.20;100.00;101039.72;5009292;28;20037;-77
2023/03/20 04:27:18;;;;;;;30.38;15.18;;;;;;;8.18;100.00;101041.47;5024110;28;20068;-81
2023/03/20 04:29:45;;;;;;;38.60;17.95;;;;;;;8.18;100.00;101044.94;5015953;28;20057;-75
2023/03/20 04:32:12;;;;;;;33.35;18.05;;;;;;;8.15;100.00;101039.69;5012255;28;20407;-76
2023/03/20 04:34:41;;;;;;;37.08;16.58;;;;;;;8.17;100.00;101024.91;5018308;28;20731;-77
2023/03/20 04:37:08;;;;;;;38.45;17.20;;;;;;;8.21;100.00;101031.03;5028468;28;20120;-77
2023/03/20 04:39:35;;;;;;;37.20;17.42;;;;;;;8.24;100.00;101036.28;5014318;28;20124;-79
2023/03/20 04:42:02;;;;;;;34.67;15.82;;;;;;;8.27;100.00;101028.47;5017699;28;20045;-77
2023/03/20 04:44:29;;;;;;;41.20;17.73;;;;;;;8.27;100.00;101020.66;5027966;28;20112;-78
2023/03/20 04:46:55;;;;;;;31.05;16.45;;;;;;;8.27;100.00;101024.13;5004816;28;20050;-80
2023/03/20 04:49:22;;;;;;;32.83;16.73;;;;;;;8.28;100.00;101020.66;5020698;28;20053;-79
2023/03/20 04:51:51;;;;;;;34.03;17.38;;;;;;;8.28;100.00;101023.25;5015038;28;20049;-76
2023/03/20 04:54:21;;;;;;;36.47;17.55;;;;;;;8.28;100.00;101028.47;5010603;28;20045;-77
2023/03/20 04:56:47;;;;;;;28.00;14.77;;;;;;;8.33;100.00;101018.09;5029901;28;20049;-77
2023/03/20 04:59:14;;;;;;;35.33;16.27;;;;;;;8.36;100.00;101019.84;5006064;28;21043;-77
2023/03/20 05:01:40;;;;;;;32.78;16.02;;;;;;;8.37;100.00;101019.84;5007327;28;20085;-75
2023/03/20 05:04:07;;;;;;;27.38;15.18;;;;;;;8.40;100.00;101022.47;5007979;28;20367;-75
2023/03/20 05:06:33;;;;;;;37.40;16.33;;;;;;;8.43;100.00;101011.19;5016406;28;20042;-79
2023/03/20 05:09:00;;;;;;;32.17;16.55;;;;;;;8.46;100.00;101012.97;5018386;28;20120;-75
2023/03/20 05:11:31;;;;;;;28.90;14.30;;;;;;;8.49;100.00;101020.81;5015675;28;20467;-75
2023/03/20 05:13:58;;;;;;;33.28;15.98;;;;;;;8.52;100.00;101007.78;5016809;28;20053;-79
2023/03/20 05:16:24;;;;;;;27.38;14.63;;;;;;;8.54;100.00;101017.38;5011914;28;20566;-76
2023/03/20 05:18:50;;;;;;;27.52;14.77;;;;;;;8.53;100.00;101009.53;5008308;28;20052;-76
2023/03/20 05:21:19;;;;;;;28.83;14.93;;;;;;;8.55;100.00;101005.19;5011691;28;20044;-79
2023/03/20 05:23:45;;;;;;;29.75;14.13;;;;;;;8.56;100.00;101002.56;5015368;28;20055;-83
2023/03/20 05:26:12;;;;;;;34.30;15.43;;;;;;;8.57;100.00;101008.69;5008901;28;20073;-77
2023/03/20 05:28:41;;;;;;;31.25;14.57;;;;;;;8.58;100.00;101011.28;5020028;28;20042;-76
2023/03/20 05:31:09;;;;;;;30.38;13.90;;;;;;;8.60;100.00;101008.69;5018813;28;20041;-78
2023/03/20 05:33:36;;;;;;;31.27;14.73;;;;;;;8.60;100.00;101013.91;5012063;28;20128;-77
2023/03/20 05:36:03;;;;;;;32.13;15.32;;;;;;;8.59;100.00;101005.22;5028478;28;20065;-76
2023/03/20 05:38:29;;;;;;;32.60;15.27;;;;;;;8.61;100.00;101013.03;5013928;28;20041;-78
2023/03/20 05:41:00;;;;;;;30.48;14.68;;;;;;;8.64;100.00;101020.88;5010398;28;20116;-77
2023/03/20 05:43:27;;;;;;;31.35;15.70;;;;;;;8.65;100.00;101012.19;5006621;28;20053;-78
2023/03/20 05:45:56;;;;;;;34.63;15.27;;;;;;;8.64;100.00;101020.88;5012113;28;20072;-76
2023/03/20 05:48:23;;;;;;;32.28;16.23;;;;;;;8.68;100.00;101024.38;5010639;28;20038;-75
2023/03/20 05:50:50;;;;;;;36.40;16.33;;;;;;;8.67;100.00;101025.25;5011630;28;20046;-77
2023/03/20 05:53:16;;;;;;;30.15;16.00;;;;;;;8.66;100.00;101019.16;5011402;28;20073;-77
2023/03/20 05:55:58;;;;;;;32.42;15.70;;;;;;;8.64;100.00;101020.03;5007780;28;20075;-77
2023/03/20 05:58:25;;;;;;;32.35;16.77;;;;;;;8.66;100.00;101021.78;5012525;28;20096;-76
2023/03/20 06:00:51;;;;;;;39.33;17.75;;;;;;;8.64;100.00;101026.09;5014016;28;20107;-76
2023/03/20 06:03:18;;;;;;;34.38;17.88;;;;;;;8.62;100.00;101027.84;5008229;28;20042;-81
2023/03/20 06:05:44;;;;;;;36.75;17.35;;;;;;;8.67;100.00;101030.47;5012341;28;20527;-76
2023/03/20 06:08:12;;;;;;;32.72;16.70;;;;;;;8.69;100.00;101026.13;4996484;28;20052;-75
2023/03/20 06:10:38;;;;;;;33.85;16.38;;;;;;;8.73;100.00;101035.72;5014889;28;20403;-75
2023/03/20 06:13:05;;;;;;;39.97;18.45;;;;;;;8.71;100.00;101032.25;5009436;28;20042;-77
2023/03/20 06:15:31;;;;;;;32.80;16.55;;;;;;;8.73;100.00;101028.75;5033516;28;20041;-75
2023/03/20 06:17:57;;;;;;;37.45;17.58;;;;;;;8.72;100.00;101026.13;5018030;28;20041;-75
2023/03/20 06:20:25;;;;;;;34.63;18.48;;;;;;;8.73;100.00;101033.09;5011284;28;20034;-74
2023/03/20 06:22:51;;;;;;;38.42;17.48;;;;;;;8.79;100.00;101030.53;5014319;28;20049;-78
2023/03/20 06:25:19;;;;;;;38.58;18.85;;;;;;;8.80;100.00;101036.63;5011985;28;20045;-76
2023/03/20 06:27:47;;;;;;;35.63;19.27;;;;;;;8.80;100.00;101049.66;5032904;28;20037;-80
2023/03/20 06:30:14;;;;;;;40.50;19.50;;;;;;;8.78;100.00;101054.88;5015309;28;20125;-75
2023/03/20 06:32:42;;;;;;;36.95;17.25;;;;;;;8.80;100.00;101040.13;4995184;28;20103;-75
2023/03/20 06:35:09;;;;;;;35.33;18.70;;;;;;;8.83;100.00;101044.47;5016659;28;20056;-75
2023/03/20 06:37:37;;;;;;;37.28;17.75;;;;;;;8.87;100.00;101049.72;5005338;28;20500;-75
2023/03/20 06:40:05;;;;;;;38.53;19.15;;;;;;;8.86;100.00;101047.94;5017130;28;20041;-81
2023/03/20 06:42:31;;;;;;;33.33;16.38;;;;;;;8.90;100.00;101052.34;4999415;28;20107;-75
2023/03/20 06:44:58;;;;;;;33.83;18.02;;;;;;;8.91;100.00;101058.44;5014675;28;20037;-78
2023/03/20 06:47:24;;;;;;;31.70;15.38;;;;;;;8.88;100.00;101051.47;5015872;28;20103;-76
2023/03/20 06:49:51;;;;;;;30.02;16.58;;;;;;;8.88;100.00;101063.66;5009564;28;20045;-84
2023/03/20 06:52:21;;;;;;;32.67;16.95;;;;;;;8.88;100.00;101061.03;5013768;28;20050;-74
2023/03/20 06:54:47;;;;;;;33.70;15.75;;;;;;;8.82;100.00;101066.22;5010743;28;20537;-78
2023/03/20 06:57:16;;;;;;;31.05;15.60;;;;;;;8.80;100.00;101061.00;5009802;28;20541;-75
2023/03/20 06:59:42;;;;;;;27.40;16.13;;;;;;;8.80;100.00;101067.94;4996929;28;20045;-75
2023/03/20 07:02:10;;;;;;;32.22;15.82;;;;;;;8.82;100.00;101064.47;5013385;28;20037;-76
2023/03/20 07:04:37;;;;;;;28.27;15.30;;;;;;;8.81;100.00;101062.72;5017452;28;20071;-78
2023/03/20 07:07:03;;;;;;;28.17;14.88;;;;;;;8.83;100.00;101071.44;5015241;28;20037;-76
2023/03/20 07:09:30;;;;;;;27.02;14.48;;;;;;;8.91;99.62;101061.03;5014358;28;20041;-75
2023/03/20 07:11:57;;;;;;;27.13;15.80;;;;;;;8.97;99.46;101066.31;5009611;28;20935;-79
2023/03/20 07:14:23;;;;;;;23.65;13.50;;;;;;;8.98;99.31;101073.25;5036471;28;20057;-74
2023/03/20 07:16:50;;;;;;;27.08;14.85;;;;;;;9.07;98.37;101070.69;5015799;28;20049;-78
2023/03/20 07:19:28;;;;;;;27.13;13.07;;;;;;;9.16;97.26;101061.13;5019917;28;20049;-75
2023/03/20 07:22:01;;;;;;;23.30;13.52;;;;;;;9.22;95.55;101061.16;5012176;28;20499;-77
2023/03/20 07:24:28;;;;;;;22.35;11.40;;;;;;;9.21;94.70;101057.66;5012627;28;20041;-76
2023/03/20 07:26:55;;;;;;;19.27;10.48;;;;;;;9.20;94.63;101062.88;5012758;28;20068;-76
2023/03/20 07:29:21;;;;;;;19.00;9.80;;;;;;;9.21;94.26;101070.72;5014311;28;20049;-76
2023/03/20 07:31:48;;;;;;;17.05;9.75;;;;;;;9.21;94.85;101065.50;5015163;28;20045;-75
2023/03/20 07:34:14;;;;;;;17.77;9.65;;;;;;;9.23;94.73;101075.94;5036148;28;20046;-74
2023/03/20 07:36:41;;;;;;;18.30;10.65;;;;;;;9.20;93.96;101076.81;5020071;28;20045;-75
2023/03/20 07:39:09;;;;;;;17.48;10.15;;;;;;;9.23;93.45;101082.06;5014435;28;20042;-76
2023/03/20 07:41:35;;;;;;;19.27;10.45;;;;;;;9.16;94.15;101087.25;5014771;28;20049;-80
2023/03/20 07:44:02;;;;;;;19.38;10.98;;;;;;;9.10;94.99;101085.50;5009350;28;20550;-78
2023/03/20 07:46:28;;;;;;;19.05;10.57;;;;;;;9.18;94.68;101089.00;5012871;28;20045;-75
2023/03/20 07:48:56;;;;;;;19.52;11.27;;;;;;;9.11;94.76;101100.28;5012640;28;20049;-78
2023/03/20 07:51:24;;;;;;;20.73;11.27;;;;;;;9.11;95.84;101089.84;5012538;28;20041;-78
2023/03/20 07:53:50;;;;;;;17.23;10.65;;;;;;;9.12;95.33;101088.97;5024144;28;20111;-75
2023/03/20 07:56:17;;;;;;;17.33;10.93;;;;;;;9.14;95.45;101091.59;5026043;28;20052;-76
2023/03/20 07:58:43;;;;;;;21.95;12.10;;;;;;;9.17;95.60;101089.88;5007218;28;20042;-75
2023/03/20 08:01:10;;;;;;;20.38;11.55;;;;;;;9.22;95.19;101090.75;4992740;28;20046;-77
2023/03/20 08:03:37;;;;;;;22.00;11.48;;;;;;;9.28;95.14;101095.13;5023712;28;20391;-79
2023/03/20 08:06:06;;;;;;;21.73;12.00;;;;;;;9.35;94.41;101094.28;5011233;28;20131;-76
2023/03/20 08:08:33;;;;;;;24.52;13.05;;;;;;;9.33;94.34;101101.25;5004995;28;20041;-82
2023/03/20 08:10:59;;;;;;;21.10;13.00;;;;;;;9.35;94.44;101099.53;5014398;28;20057;-79
2023/03/20 08:13:28;;;;;;;22.40;13.15;;;;;;;9.25;94.73;101097.75;5017067;28;20053;-76
2023/03/20 08:15:54;;;;;;;22.13;11.85;;;;;;;9.24;95.08;101109.06;5015737;28;20124;-75
2023/03/20 08:18:21;;;;;;;20.48;12.80;;;;;;;9.22;94.89;101103.81;5013831;28;20041;-79
2023/03/20 08:20:49;;;;;;;20.23;11.02;;;;;;;9.24;94.64;101096.00;5013191;28;20045;-81
2023/03/20 08:23:16;;;;;;;20.00;11.38;;;;;;;9.27;94.81;101101.25;5000032;28;20115;-78
2023/03/20 08:25:48;;;;;;;23.95;11.35;;;;;;;9.31;93.98;101099.50;4999101;28;20419;-76
2023/03/20 08:28:15;;;;;;;18.48;10.32;;;;;;;9.26;94.31;101094.25;5015025;28;20037;-75
2023/03/20 08:30:41;;;;;;;18.50;10.93;;;;;;;9.31;94.17;101091.66;5009745;28;20041;-80
2023/03/20 08:33:08;;;;;;;20.75;10.40;;;;;;;9.34;94.26;101094.28;5007980;28;20053;-79
2023/03/20 08:35:34;;;;;;;20.85;11.88;;;;;;;9.32;93.18;101099.53;5010982;28;20090;-75
2023/03/20 08:38:02;;;;;;;18.85;11.93;;;;;;;9.37;92.73;101102.13;5011021;28;20045;-74
2023/03/20 08:40:29;;;;;;;26.85;12.18;;;;;;;9.32;92.49;101104.75;5014467;28;20487;-75
2023/03/20 08:42:57;;;;;;;23.75;12.57;;;;;;;9.30;93.33;101105.59;5017495;28;20054;-76
2023/03/20 08:45:24;;;;;;;19.90;11.63;;;;;;;9.32;92.51;101114.31;5016232;28;20029;-76
2023/03/20 08:47:51;;;;;;;22.17;12.68;;;;;;;9.28;92.87;101121.25;5031290;28;20041;-75
2023/03/20 08:50:18;;;;;;;16.75;11.30;;;;;;;9.29;93.09;101114.31;5000672;28;20766;-79
2023/03/20 08:52:45;;;;;;;18.25;11.15;;;;;;;9.26;93.27;101118.63;4992763;28;20045;-81
2023/03/20 08:55:14;;;;;;;17.83;10.85;;;;;;;9.23;92.09;101123.88;5007244;28;20072;-75
2023/03/20 08:57:41;;;;;;;18.52;10.07;;;;;;;9.26;91.60;101123.00;5003624;28;20050;-77
2023/03/20 09:00:11;;;;;;;14.77;9.48;;;;;;;9.25;91.43;101121.25;5006162;28;20050;-78
2023/03/20 09:02:38;;;;;;;18.90;10.75;;;;;;;9.35;91.31;101114.34;5001441;28;20593;-78
2023/03/20 09:05:05;;;;;;;17.08;9.48;;;;;;;9.46;89.54;101112.59;4994791;28;20213;-78
2023/03/20 09:07:32;;;;;;;16.52;10.13;;;;;;;9.43;89.56;101113.47;5030503;28;20155;-75
2023/03/20 09:09:58;;;;;;;17.13;10.10;;;;;;;9.52;89.59;101112.63;5011499;28;20049;-76
2023/03/20 09:12:25;;;;;;;15.80;9.75;;;;;;;9.59;88.94;101124.88;5019910;28;20088;-76
2023/03/20 09:14:51;;;;;;;17.17;9.93;;;;;;;9.64;88.33;101124.00;5011564;28;20041;-77
2023/03/20 09:17:18;;;;;;;16.27;9.70;;;;;;;9.71;88.17;101128.34;5014377;28;20049;-76
2023/03/20 09:19:44;;;;;;;17.88;10.52;;;;;;;9.58;88.63;101122.22;5005786;28;20045;-74
2023/03/20 09:22:16;;;;;;;14.90;10.00;;;;;;;9.61;89.48;101122.25;5021138;28;20037;-75
2023/03/20 09:24:44;;;;;;;18.17;9.82;;;;;;;9.73;88.57;101121.41;5014551;28;20084;-77
2023/03/20 09:27:12;;;;;;;16.48;9.32;;;;;;;9.82;87.71;101134.50;4990877;28;20058;-75
2023/03/20 09:29:39;;;;;;;16.35;10.05;;;;;;;9.84;87.04;101124.03;5011646;28;20042;-75
2023/03/20 09:32:07;;;;;;;17.50;10.40;;;;;;;9.80;86.19;101132.75;5007564;28;20111;-78
2023/03/20 09:34:33;;;;;;;18.58;10.95;;;;;;;9.70;87.08;101129.22;5015141;28;20045;-75
2023/03/20 09:37:01;;;;;;;16.02;9.73;;;;;;;9.72;87.10;101125.75;5015343;28;20038;-77
2023/03/20 09:39:28;;;;;;;16.15;9.70;;;;;;;9.73;87.15;101135.34;5012161;28;20040;-75
2023/03/20 09:42:02;;;;;;;16.42;10.77;;;;;;;9.74;86.52;101125.78;5005945;28;20128;-76
2023/03/20 09:44:57;;;;;;;16.40;10.23;;;;;;;9.71;85.87;101128.34;5007572;28;20151;-76
2023/03/20 09:48:05;;;;;;;16.33;10.30;;;;;;;9.79;85.21;101126.66;5010903;28;20046;-75
2023/03/20 09:51:02;;;;;;;17.30;10.32;;;;;;;9.77;85.41;101131.00;5009306;28;20072;-75
2023/03/20 09:53:36;;;;;;;16.10;9.77;;;;;;;9.81;84.95;101124.91;4975761;28;20054;-76
2023/03/20 09:56:06;;;;;;;15.65;10.05;;;;;;;9.98;83.42;101131.91;4997273;28;20196;-76
2023/03/20 09:58:35;;;;;;;15.45;9.70;;;;;;;10.12;83.42;101130.16;4999436;28;20038;-77
2023/03/20 10:01:05;;;;;;;18.95;10.73;;;;;;;10.26;82.29;101130.19;4990862;28;20057;-75
2023/03/20 10:03:43;;;;;;;17.10;9.20;;;;;;;10.24;81.98;101129.28;5005527;28;20147;-77
2023/03/20 10:06:15;;;;;;;14.73;9.68;;;;;;;10.29;81.73;101135.41;5005941;28;20042;-75
2023/03/20 10:08:43;;;;;;;14.85;9.13;;;;;;;10.32;79.45;101127.53;5010052;28;20520;-81
2023/03/20 10:11:55;;;;;;;16.60;8.68;;;;;;;10.30;79.86;101137.16;5006613;28;20046;-78
2023/03/20 10:14:36;;;;;;;12.95;7.75;;;;;;;10.23;78.46;101141.53;5002497;28;20039;-77
2023/03/20 10:17:21;;;;;;;12.73;7.47;;;;;;;10.10;78.91;101132.78;5016842;28;20049;-74
2023/03/20 10:19:58;;;;;;;12.13;7.72;;;;;;;10.06;79.10;101127.53;5009512;28;20046;-78
2023/03/20 10:22:35;;;;;;;14.90;7.95;;;;;;;10.08;79.39;101131.03;5007539;28;20045;-74
2023/03/20 10:25:31;;;;;;;9.88;7.28;;;;;;;10.18;79.18;101137.13;5004325;28;20045;-81
2023/03/20 10:28:02;;;;;;;14.95;8.50;;;;;;;10.39;77.21;101137.19;5003733;28;20046;-76
2023/03/20 10:31:22;;;;;;;7.97;6.65;;;;;;;10.57;76.22;101143.25;4995320;28;20136;-78
2023/03/20 10:34:05;;;;;;;11.00;6.32;;;;;;;10.69;75.68;101134.53;5006213;28;20456;-78
2023/03/20 10:36:51;;;;;;;8.23;5.72;;;;;;;10.80;75.20;101131.91;5007452;28;20038;-77
2023/03/20 10:39:49;;;;;;;11.82;6.43;;;;;;;11.00;74.37;101121.34;5005174;28;20153;-77
2023/03/20 10:42:23;;;;;;;8.00;5.30;;;;;;;11.44;73.40;101125.53;5008957;28;20046;-76
2023/03/20 10:45:05;;;;;;;12.07;4.63;;;;;;;11.89;69.98;101138.41;5007057;28;20053;-76
2023/03/20 10:47:36;;;;;;;7.32;4.32;;;;;;;11.94;68.81;101136.59;5000397;28;20049;-76
2023/03/20 10:50:08;;;;;;;9.38;5.22;;;;;;;12.14;67.90;101126.00;5009803;28;20057;-79
2023/03/20 10:52:40;;;;;;;7.85;4.40;;;;;;;12.04;66.68;101124.34;5009814;28;20061;-77
2023/03/20 10:55:13;;;;;;;6.32;3.67;;;;;;;11.79;66.99;101123.63;5006063;28;20126;-79
2023/03/20 10:57:46;;;;;;;8.48;4.78;;;;;;;11.88;67.25;101126.19;5012509;28;20041;-79
2023/03/20 11:00:23;;;;;;;5.43;3.92;;;;;;;13.01;62.96;101117.28;5006756;28;20053;-77
2023/03/20 11:02:50;;;;;;;7.05;4.00;;;;;;;13.25;61.84;101124.03;5009511;28;20046;-78
2023/03/20 11:05:32;;;;;;;5.50;3.53;;;;;;;13.57;60.12;101118.38;5012483;28;20050;-79
2023/03/20 11:08:13;;;;;;;8.90;5.40;;;;;;;13.77;60.04;101111.09;5010352;28;20738;-77
2023/03/20 11:10:42;;;;;;;9.00;4.55;;;;;;;14.08;58.42;101108.84;5008467;28;20045;-75
2023/03/20 11:13:33;;;;;;;7.20;4.43;;;;;;;14.25;57.07;101102.41;5020834;28;20049;-76
2023/03/20 11:16:17;;;;;;;6.53;3.75;;;;;;;14.31;55.85;101097.91;5005813;28;20038;-75
2023/03/20 11:18:44;;;;;;;5.88;4.30;;;;;;;14.37;56.76;101089.06;5010797;28;20465;-78
2023/03/20 11:21:20;;;;;;;5.95;4.18;;;;;;;14.22;56.55;101090.16;5019036;28;20065;-78
2023/03/20 11:23:47;;;;;;;9.50;4.35;;;;;;;13.88;56.07;101085.47;5012555;28;20049;-78
2023/03/20 11:26:18;;;;;;;8.15;3.75;;;;;;;13.37;56.35;101091.47;5010914;28;20497;-75
2023/03/20 11:28:57;;;;;;;7.22;4.13;;;;;;;13.10;57.47;101095.28;4999844;28;20100;-82
2023/03/20 11:31:36;;;;;;;8.00;4.40;;;;;;;13.08;57.79;101090.06;4997052;28;20043;-75
2023/03/20 11:34:15;;;;;;;7.82;3.78;;;;;;;12.80;57.06;101086.88;5011195;28;20046;-75
2023/03/20 11:37:00;;;;;;;6.40;3.50;;;;;;;12.85;57.28;101085.97;5013830;28;20049;-77